Time;durP1;ratioP1;P1;durP2;ratioP2;P2;SDS_P1;SDS_P2;PMS_P1;PMS_P2;Temp;Humidity;BMP_temperature;BMP_pressure;BME280_temperature;BME280_humidity;BME280_pressure;Samples;Min_cycle;Max_cycle;Signal;HPM_P1;HPM_P2
2022/06/24 00:00:10;;;;;;;4.40;4.00;;;21.50;63.10;;;;;;4911549;29;20189;-90
2022/06/24 00:02:39;;;;;;;4.47;4.07;;;21.50;63.10;;;;;;4912280;29;20213;-90
2022/06/24 00:05:09;;;;;;;4.70;4.30;;;21.50;63.10;;;;;;4942777;29;20654;-91
2022/06/24 00:07:47;;;;;;;5.03;4.53;;;21.50;63.10;;;;;;4911450;29;20173;-91
2022/06/24 00:10:14;;;;;;;4.57;4.18;;;21.50;63.20;;;;;;4942283;29;20183;-91
2022/06/24 00:12:45;;;;;;;4.53;4.10;;;21.50;63.20;;;;;;4911155;29;20205;-90
2022/06/24 00:15:13;;;;;;;4.47;4.07;;;21.50;63.20;;;;;;4942177;29;20171;-90
2022/06/24 00:17:39;;;;;;;4.63;4.22;;;21.50;63.20;;;;;;4910449;29;20174;-91
2022/06/24 00:20:18;;;;;;;4.35;3.95;;;21.50;63.20;;;;;;4912476;29;20189;-90
2022/06/24 00:22:45;;;;;;;4.82;4.32;;;21.50;63.20;;;;;;4927256;29;20200;-91
2022/06/24 00:25:22;;;;;;;4.45;4.05;;;21.50;63.30;;;;;;4912811;29;20178;-90
2022/06/24 00:28:05;;;;;;;4.22;3.83;;;21.50;63.40;;;;;;4944978;29;20192;-90
2022/06/24 00:30:38;;;;;;;4.90;4.40;;;21.50;63.40;;;;;;4946078;29;20177;-89
2022/06/24 00:33:24;;;;;;;4.63;4.22;;;21.50;63.40;;;;;;4914257;29;20234;-91
2022/06/24 00:35:51;;;;;;;4.80;4.30;;;21.50;63.40;;;;;;4914925;29;20173;-90
2022/06/24 00:38:27;;;;;;;4.55;4.07;;;21.50;63.40;;;;;;4912216;29;20173;-90
2022/06/24 00:41:06;;;;;;;4.43;4.03;;;21.50;63.40;;;;;;4911054;29;20168;-90
2022/06/24 00:43:41;;;;;;;4.95;4.45;;;21.50;63.40;;;;;;4910951;29;20169;-90
2022/06/24 00:46:26;;;;;;;4.93;4.43;;;21.50;63.50;;;;;;4910352;29;20251;-90
2022/06/24 00:48:57;;;;;;;4.50;4.10;;;21.50;63.50;;;;;;4911980;29;20201;-90
2022/06/24 00:51:41;;;;;;;4.75;4.25;;;21.40;63.50;;;;;;4942708;29;20189;-91
2022/06/24 00:54:09;;;;;;;4.70;4.28;;;21.50;63.50;;;;;;4913338;29;20157;-90
2022/06/24 00:56:35;;;;;;;4.50;4.10;;;21.40;63.50;;;;;;4910675;29;20613;-90
2022/06/24 00:59:05;;;;;;;4.60;4.20;;;21.40;63.50;;;;;;4910343;29;20257;-90
2022/06/24 01:01:36;;;;;;;4.53;4.13;;;21.40;63.50;;;;;;4910993;29;20558;-91
2022/06/24 01:04:03;;;;;;;4.63;4.18;;;21.40;63.50;;;;;;4911436;29;20173;-90
2022/06/24 01:06:32;;;;;;;5.05;4.43;;;21.40;63.50;;;;;;4926119;29;20153;-91
2022/06/24 01:09:00;;;;;;;4.85;4.35;;;21.40;63.50;;;;;;4910306;29;20301;-91
2022/06/24 01:11:29;;;;;;;5.00;4.50;;;21.40;63.50;;;;;;4910279;29;20172;-90
2022/06/24 01:13:56;;;;;;;4.70;4.30;;;21.40;63.50;;;;;;4914864;29;20168;-90
2022/06/24 01:16:24;;;;;;;4.65;4.25;;;21.40;63.50;;;;;;4913881;29;20165;-91
2022/06/24 01:18:52;;;;;;;4.80;4.30;;;21.40;63.50;;;;;;4930342;29;20256;-90
2022/06/24 01:21:37;;;;;;;4.40;4.00;;;21.40;63.50;;;;;;4914695;29;20174;-90
2022/06/24 01:24:11;;;;;;;5.10;4.60;;;21.30;63.50;;;;;;4930169;29;20168;-90
2022/06/24 01:26:38;;;;;;;4.97;4.40;;;21.30;63.60;;;;;;4945406;29;20169;-91
2022/06/24 01:29:06;;;;;;;4.57;4.13;;;21.40;63.60;;;;;;4914470;29;20169;-91
2022/06/24 01:31:42;;;;;;;4.93;4.35;;;21.40;63.60;;;;;;4913972;29;20192;-90
2022/06/24 01:34:10;;;;;;;4.38;3.97;;;21.40;63.60;;;;;;4945286;29;20165;-91
2022/06/24 01:36:38;;;;;;;5.38;4.88;;;21.40;63.60;;;;;;4914197;29;20172;-90
2022/06/24 01:39:07;;;;;;;4.90;4.43;;;21.40;63.70;;;;;;4914313;29;20165;-91
2022/06/24 01:41:34;;;;;;;4.40;4.00;;;21.40;63.70;;;;;;4914025;29;20169;-91
2022/06/24 01:44:00;;;;;;;4.57;4.18;;;21.40;63.70;;;;;;4913605;29;20161;-91
2022/06/24 01:46:33;;;;;;;5.45;4.95;;;21.40;63.70;;;;;;4911528;29;20341;-91
2022/06/24 01:48:59;;;;;;;4.90;4.40;;;21.30;63.60;;;;;;4925676;29;20532;-91
2022/06/24 01:51:39;;;;;;;4.68;4.20;;;21.40;63.70;;;;;;4910867;29;20169;-89
2022/06/24 01:54:06;;;;;;;5.00;4.50;;;21.30;63.70;;;;;;4925626;29;20314;-91
2022/06/24 01:56:34;;;;;;;5.22;4.72;;;21.40;63.80;;;;;;4910562;29;20170;-91
2022/06/24 01:59:02;;;;;;;4.60;4.20;;;21.30;63.70;;;;;;4910146;29;20436;-90
2022/06/24 02:01:32;;;;;;;4.47;4.07;;;21.30;63.80;;;;;;4910575;29;20264;-90
2022/06/24 02:03:58;;;;;;;4.68;4.18;;;21.30;63.80;;;;;;4910725;29;20178;-90
2022/06/24 02:06:25;;;;;;;4.53;3.95;;;21.30;63.80;;;;;;4910477;29;20170;-91
2022/06/24 02:08:56;;;;;;;4.47;4.07;;;21.30;63.80;;;;;;4910033;29;20194;-91
2022/06/24 02:14:07;;;;;;;4.97;4.47;;;21.30;63.80;;;;;;4928275;29;20291;-91
2022/06/24 02:16:35;;;;;;;4.95;4.47;;;21.30;63.90;;;;;;4911195;29;20170;-91
2022/06/24 02:19:06;;;;;;;5.43;4.63;;;21.30;63.90;;;;;;4910703;29;20176;-90
2022/06/24 02:21:35;;;;;;;4.38;3.97;;;21.30;63.90;;;;;;4941411;29;20166;-90
2022/06/24 02:24:02;;;;;;;5.20;4.70;;;21.30;63.90;;;;;;4925995;29;20593;-91
2022/06/24 02:26:30;;;;;;;4.78;4.32;;;21.30;63.90;;;;;;4926332;29;20199;-90
2022/06/24 02:28:57;;;;;;;5.18;4.40;;;21.30;63.90;;;;;;4911231;29;20170;-91
2022/06/24 02:31:24;;;;;;;4.90;4.40;;;21.30;63.90;;;;;;4927239;29;20158;-90
2022/06/24 02:33:52;;;;;;;4.88;4.40;;;21.30;64.80;;;;;;4910920;29;20676;-90
2022/06/24 02:36:19;;;;;;;4.30;3.90;;;21.30;64.00;;;;;;4911732;29;20241;-90
2022/06/24 02:38:45;;;;;;;5.30;4.43;;;21.30;63.90;;;;;;4912292;29;20266;-91
2022/06/24 02:41:12;;;;;;;4.97;4.10;;;21.30;63.90;;;;;;4911698;29;20210;-90
2022/06/24 02:43:42;;;;;;;4.28;3.88;;;21.30;63.90;;;;;;4928525;29;20222;-91
2022/06/24 02:46:11;;;;;;;5.28;4.78;;;21.30;63.90;;;;;;4912704;29;20229;-91
2022/06/24 02:48:41;;;;;;;5.03;4.43;;;21.30;63.90;;;;;;4913750;29;20640;-91
2022/06/24 02:51:10;;;;;;;4.85;4.40;;;21.30;63.90;;;;;;4912745;29;20596;-91
2022/06/24 02:53:38;;;;;;;4.78;4.18;;;21.30;63.90;;;;;;4913464;29;20340;-90
2022/06/24 02:56:12;;;;;;;4.65;4.25;;;21.30;63.90;;;;;;4928540;29;20640;-90
2022/06/24 02:58:38;;;;;;;4.75;4.28;;;21.30;64.00;;;;;;4913676;29;20170;-90
2022/06/24 03:01:04;;;;;;;5.20;4.35;;;21.30;64.00;;;;;;4913659;29;20177;-91
2022/06/24 03:03:31;;;;;;;4.72;4.22;;;21.20;63.90;;;;;;4914499;29;20634;-90
2022/06/24 03:05:56;;;;;;;5.00;4.50;;;21.30;64.00;;;;;;4914266;29;20242;-90
2022/06/24 03:08:24;;;;;;;4.85;4.38;;;21.30;63.90;;;;;;4914255;29;20600;-90
2022/06/24 03:10:51;;;;;;;4.68;4.28;;;21.30;64.00;;;;;;4914324;29;20544;-91
2022/06/24 03:13:20;;;;;;;5.43;4.60;;;21.20;63.80;;;;;;4914327;29;20204;-91
2022/06/24 03:15:48;;;;;;;4.53;4.10;;;21.30;64.00;;;;;;4914695;29;20169;-91
2022/06/24 03:18:16;;;;;;;4.47;4.07;;;21.20;64.00;;;;;;4915190;29;20194;-90
2022/06/24 03:20:44;;;;;;;4.50;4.10;;;21.30;63.90;;;;;;4913622;29;20278;-90
2022/06/24 03:23:11;;;;;;;5.03;4.53;;;21.20;63.90;;;;;;4914512;29;20242;-90
2022/06/24 03:25:38;;;;;;;4.90;4.40;;;21.20;63.80;;;;;;4928881;29;20170;-90
2022/06/24 03:28:07;;;;;;;4.90;4.40;;;21.30;63.90;;;;;;4930016;29;20161;-91
2022/06/24 03:30:35;;;;;;;4.53;4.13;;;21.30;64.70;;;;;;4930481;29;20174;-90
2022/06/24 03:33:01;;;;;;;4.60;4.20;;;21.30;63.90;;;;;;4914010;29;20609;-90
2022/06/24 03:35:28;;;;;;;4.90;4.40;;;21.30;63.80;;;;;;4913804;29;20177;-90
2022/06/24 03:37:56;;;;;;;4.40;4.00;;;21.30;63.90;;;;;;4913495;29;20178;-90
2022/06/24 03:40:22;;;;;;;4.53;4.13;;;21.20;63.70;;;;;;4913265;29;20174;-90
2022/06/24 03:42:55;;;;;;;4.78;4.32;;;21.30;63.80;;;;;;4913065;29;20232;-89
2022/06/24 03:45:25;;;;;;;4.50;4.10;;;21.30;63.80;;;;;;4928553;29;20238;-90
2022/06/24 03:47:54;;;;;;;4.85;4.35;;;21.40;63.70;;;;;;4943803;29;20193;-90
2022/06/24 03:50:21;;;;;;;5.45;4.43;;;21.40;63.60;;;;;;4912940;29;20208;-89
2022/06/24 03:52:46;;;;;;;5.05;4.38;;;21.30;63.60;;;;;;4913433;29;20213;-90
2022/06/24 03:55:13;;;;;;;4.55;4.13;;;21.30;63.60;;;;;;4912849;29;20174;-91
2022/06/24 03:57:40;;;;;;;4.68;4.20;;;21.30;63.50;;;;;;4912751;29;20162;-90
2022/06/24 04:00:08;;;;;;;4.45;4.05;;;21.40;63.50;;;;;;4913073;29;20234;-90
2022/06/24 04:02:34;;;;;;;4.38;3.97;;;21.40;63.50;;;;;;4912404;29;20208;-89
2022/06/24 04:05:00;;;;;;;4.70;4.20;;;21.40;63.40;;;;;;4912927;29;20176;-89
2022/06/24 04:07:27;;;;;;;4.35;3.95;;;21.40;63.20;;;;;;4913584;29;20272;-89
2022/06/24 04:09:55;;;;;;;4.60;4.20;;;21.40;63.20;;;;;;4913799;29;20166;-90
2022/06/24 04:12:21;;;;;;;5.22;4.72;;;21.40;63.10;;;;;;4929414;29;20269;-90
2022/06/24 04:17:33;;;;;;;4.57;4.15;;;21.40;63.20;;;;;;4931362;29;20237;-90
2022/06/24 04:20:01;;;;;;;4.82;4.32;;;21.50;63.10;;;;;;4912770;29;20170;-90
2022/06/24 04:22:34;;;;;;;5.18;4.68;;;21.40;63.00;;;;;;4912647;29;20193;-89
2022/06/24 04:25:02;;;;;;;4.90;4.40;;;21.50;63.00;;;;;;4943900;29;20158;-89
2022/06/24 04:27:28;;;;;;;4.60;4.20;;;21.50;62.90;;;;;;4913585;29;20573;-89
2022/06/24 04:30:00;;;;;;;4.60;4.20;;;21.50;63.00;;;;;;4911732;29;20167;-89
2022/06/24 04:32:32;;;;;;;4.93;4.43;;;21.50;63.10;;;;;;4912565;29;20232;-89
2022/06/24 04:34:58;;;;;;;4.50;4.10;;;21.50;62.90;;;;;;4928020;29;20632;-90
2022/06/24 04:37:24;;;;;;;4.40;4.00;;;21.50;62.90;;;;;;4912675;29;20261;-89
2022/06/24 04:39:51;;;;;;;4.30;3.90;;;21.50;63.00;;;;;;4912524;29;20495;-89
2022/06/24 04:42:17;;;;;;;5.03;4.53;;;21.50;62.70;;;;;;4913254;29;20186;-89
2022/06/24 04:44:42;;;;;;;4.53;4.13;;;21.50;62.70;;;;;;4912954;29;20320;-89
2022/06/24 04:47:12;;;;;;;4.75;4.30;;;21.60;62.70;;;;;;4912345;29;20201;-89
2022/06/24 04:49:38;;;;;;;4.40;4.00;;;21.60;62.60;;;;;;4928673;29;20186;-89
2022/06/24 04:52:08;;;;;;;4.57;4.03;;;21.60;62.60;;;;;;4913148;29;20198;-89
2022/06/24 04:54:34;;;;;;;4.80;4.30;;;21.60;62.60;;;;;;4928590;29;20201;-89
2022/06/24 04:57:02;;;;;;;4.45;4.05;;;21.60;62.60;;;;;;4913119;29;20170;-89
2022/06/24 04:59:32;;;;;;;4.47;4.07;;;21.60;62.70;;;;;;4912637;29;20507;-89
2022/06/24 05:01:58;;;;;;;4.50;4.10;;;21.60;62.70;;;;;;4929001;29;20178;-89
2022/06/24 05:04:25;;;;;;;4.40;4.00;;;21.60;62.70;;;;;;4913712;29;20180;-89
2022/06/24 05:06:55;;;;;;;4.63;4.22;;;21.60;62.90;;;;;;4893690;29;20186;-89
2022/06/24 05:09:21;;;;;;;4.78;4.32;;;21.60;62.90;;;;;;4893135;29;20190;-89
2022/06/24 05:11:55;;;;;;;4.90;4.40;;;21.60;62.70;;;;;;4908916;29;20178;-89
2022/06/24 05:14:21;;;;;;;4.68;4.25;;;21.50;62.80;;;;;;4892910;29;20237;-89
2022/06/24 05:16:49;;;;;;;4.72;4.00;;;21.50;62.80;;;;;;4893688;29;20591;-89
2022/06/24 05:19:16;;;;;;;4.43;4.03;;;21.50;62.70;;;;;;4893289;29;20171;-89
2022/06/24 05:21:41;;;;;;;4.75;4.25;;;21.60;62.80;;;;;;4893701;29;20182;-89
2022/06/24 05:24:08;;;;;;;4.80;4.22;;;21.60;62.60;;;;;;4894548;29;20182;-89
2022/06/24 05:26:34;;;;;;;4.80;4.30;;;21.60;62.50;;;;;;4909617;29;20185;-89
2022/06/24 05:29:06;;;;;;;4.47;4.05;;;21.70;62.50;;;;;;4909208;29;20194;-90
2022/06/24 05:31:33;;;;;;;4.47;4.07;;;21.70;62.60;;;;;;4892759;29;20167;-89
2022/06/24 05:34:08;;;;;;;4.60;4.07;;;21.70;62.30;;;;;;4909003;29;20205;-90
2022/06/24 05:36:36;;;;;;;4.47;4.07;;;21.70;62.60;;;;;;4894296;29;20212;-90
2022/06/24 05:39:05;;;;;;;4.43;3.95;;;21.80;62.30;;;;;;4909151;29;20181;-90
2022/06/24 05:41:37;;;;;;;4.90;4.40;;;21.80;62.30;;;;;;4893453;29;20187;-90
2022/06/24 05:44:02;;;;;;;4.45;4.05;;;21.70;62.30;;;;;;4893223;29;20219;-90
2022/06/24 05:46:30;;;;;;;4.60;4.20;;;21.80;62.40;;;;;;4908582;29;20652;-90
2022/06/24 05:48:58;;;;;;;4.78;4.38;;;21.80;62.30;;;;;;4909293;29;20191;-89
2022/06/24 05:51:36;;;;;;;4.55;4.15;;;21.70;62.50;;;;;;4936050;29;20182;-90
2022/06/24 05:56:56;;;;;;;4.50;4.10;;;21.80;62.30;;;;;;4930168;29;20452;-90
2022/06/24 05:59:23;;;;;;;4.40;4.00;;;21.80;62.40;;;;;;4907179;29;20242;-89
2022/06/24 06:01:49;;;;;;;4.20;3.80;;;21.80;62.10;;;;;;4893340;29;20183;-90
2022/06/24 06:04:16;;;;;;;4.32;3.92;;;21.80;62.20;;;;;;4893472;29;20184;-90
2022/06/24 06:06:41;;;;;;;4.38;3.90;;;21.80;62.30;;;;;;4892795;29;20207;-90
2022/06/24 06:09:08;;;;;;;4.38;3.97;;;21.80;62.40;;;;;;4893321;29;20643;-89
2022/06/24 06:11:34;;;;;;;4.43;4.03;;;21.80;62.10;;;;;;4893384;29;20218;-89
2022/06/24 06:14:02;;;;;;;4.43;4.00;;;21.80;62.10;;;;;;4893889;29;20199;-90
2022/06/24 06:16:28;;;;;;;4.35;3.95;;;21.80;62.40;;;;;;4877317;29;20211;-90
2022/06/24 06:18:58;;;;;;;4.40;4.00;;;21.80;62.50;;;;;;4893874;29;20228;-90
2022/06/24 06:21:26;;;;;;;4.47;4.07;;;21.80;62.10;;;;;;4892922;29;20183;-90
2022/06/24 06:23:53;;;;;;;4.30;3.90;;;21.80;62.10;;;;;;4893153;29;20197;-90
2022/06/24 06:26:22;;;;;;;4.53;4.13;;;21.90;62.00;;;;;;4893109;29;20175;-90
2022/06/24 06:28:48;;;;;;;4.05;3.65;;;21.80;62.10;;;;;;4893596;29;20178;-89
2022/06/24 06:31:27;;;;;;;4.03;3.63;;;21.80;62.10;;;;;;4893298;29;20206;-90
2022/06/24 06:33:54;;;;;;;5.00;4.50;;;21.80;62.00;;;;;;4893245;29;20199;-90
2022/06/24 06:36:22;;;;;;;4.30;3.90;;;21.90;62.30;;;;;;4906536;29;20182;-90
2022/06/24 06:38:54;;;;;;;4.32;3.92;;;21.90;61.90;;;;;;4915545;29;20174;-89
2022/06/24 06:41:25;;;;;;;3.90;3.60;;;21.80;62.00;;;;;;4931247;29;20220;-90
2022/06/24 06:43:53;;;;;;;4.25;3.85;;;21.90;62.10;;;;;;4931059;29;20180;-90
2022/06/24 06:46:19;;;;;;;4.00;3.60;;;21.80;62.00;;;;;;4915410;29;20285;-89
2022/06/24 06:48:47;;;;;;;4.57;4.18;;;21.90;62.40;;;;;;4916323;29;20162;-90
2022/06/24 06:51:14;;;;;;;4.75;4.25;;;21.90;62.30;;;;;;4915241;29;20166;-90
2022/06/24 06:53:39;;;;;;;3.97;3.58;;;21.90;62.10;;;;;;4915937;29;20198;-90
2022/06/24 06:56:07;;;;;;;4.05;3.65;;;22.00;62.10;;;;;;4916313;29;20169;-90
2022/06/24 06:58:33;;;;;;;3.90;3.60;;;21.90;62.00;;;;;;4916158;29;20163;-91
2022/06/24 07:00:59;;;;;;;4.38;3.97;;;21.90;62.10;;;;;;4916176;29;20162;-91
2022/06/24 07:03:30;;;;;;;4.07;3.67;;;21.90;61.90;;;;;;4933017;29;20169;-90
2022/06/24 07:05:56;;;;;;;3.67;3.38;;;21.90;61.80;;;;;;4917087;29;20194;-90
2022/06/24 07:08:26;;;;;;;4.10;3.70;;;21.90;61.90;;;;;;4932914;29;20170;-90
2022/06/24 07:11:03;;;;;;;4.20;3.70;;;21.90;62.00;;;;;;4931390;29;20206;-90
2022/06/24 07:13:30;;;;;;;3.97;3.60;;;21.90;62.00;;;;;;4900122;29;20221;-90
2022/06/24 07:15:56;;;;;;;3.85;3.45;;;22.00;61.90;;;;;;4915912;29;20683;-90
2022/06/24 07:18:22;;;;;;;4.45;4.05;;;22.00;61.80;;;;;;4915297;29;20637;-90
2022/06/24 07:20:50;;;;;;;4.60;4.15;;;22.00;61.80;;;;;;4915530;29;20170;-90
2022/06/24 07:23:15;;;;;;;4.15;3.75;;;22.00;61.80;;;;;;4914765;29;20181;-90
2022/06/24 07:25:42;;;;;;;3.92;3.60;;;21.90;61.90;;;;;;4915075;29;20270;-90
2022/06/24 07:28:20;;;;;;;4.50;4.10;;;21.90;61.80;;;;;;4915507;29;20239;-91
2022/06/24 07:30:46;;;;;;;4.20;3.63;;;22.00;61.80;;;;;;4891796;29;20251;-90
2022/06/24 07:33:15;;;;;;;4.18;3.78;;;22.00;61.80;;;;;;4872609;29;20207;-91
2022/06/24 07:35:43;;;;;;;3.85;3.45;;;22.10;61.60;;;;;;4888091;29;20212;-89
2022/06/24 07:38:10;;;;;;;3.65;3.35;;;22.00;61.80;;;;;;4888397;29;20572;-90
2022/06/24 07:40:42;;;;;;;4.13;3.72;;;21.90;61.90;;;;;;4888755;29;20172;-90
2022/06/24 07:43:10;;;;;;;4.40;4.00;;;21.90;61.90;;;;;;4888795;29;20256;-90
2022/06/24 07:45:36;;;;;;;4.30;3.80;;;21.90;61.90;;;;;;4887872;29;20663;-91
2022/06/24 07:48:03;;;;;;;4.13;3.72;;;22.00;61.60;;;;;;4872638;29;20220;-90
2022/06/24 07:50:29;;;;;;;4.13;3.72;;;22.00;61.60;;;;;;4888297;29;20298;-90
2022/06/24 07:52:57;;;;;;;4.32;3.92;;;22.00;61.80;;;;;;4888860;29;20283;-90
2022/06/24 07:58:03;;;;;;;4.10;3.75;;;22.00;61.60;;;;;;4892162;29;20208;-90
2022/06/24 08:00:34;;;;;;;4.35;3.95;;;22.00;61.70;;;;;;4892729;29;20171;-89
2022/06/24 08:02:59;;;;;;;3.63;3.33;;;22.00;61.80;;;;;;4892423;29;20168;-90
2022/06/24 08:05:25;;;;;;;3.97;3.58;;;22.00;61.70;;;;;;4891804;29;20240;-89
2022/06/24 08:08:02;;;;;;;4.00;3.58;;;22.00;61.80;;;;;;4897340;29;20233;-90
2022/06/24 08:10:29;;;;;;;3.85;3.45;;;22.00;61.80;;;;;;4913210;29;20196;-90
2022/06/24 08:13:01;;;;;;;3.83;3.53;;;22.00;61.60;;;;;;4913434;29;20533;-89
2022/06/24 08:15:30;;;;;;;3.83;3.53;;;22.00;61.50;;;;;;4930384;29;20201;-90
2022/06/24 08:17:58;;;;;;;3.60;3.30;;;22.00;61.80;;;;;;4929534;29;20158;-89
2022/06/24 08:20:25;;;;;;;4.03;3.63;;;22.00;61.90;;;;;;4913949;29;20167;-90
2022/06/24 08:22:52;;;;;;;3.80;3.50;;;22.10;61.80;;;;;;4913508;29;20359;-90
2022/06/24 08:25:18;;;;;;;3.60;3.30;;;22.00;61.60;;;;;;4890984;29;20587;-90
2022/06/24 08:27:44;;;;;;;3.70;3.40;;;22.00;61.70;;;;;;4875909;29;20203;-90
2022/06/24 08:30:12;;;;;;;4.43;3.50;;;22.00;61.80;;;;;;4875773;29;20202;-90
2022/06/24 08:32:42;;;;;;;3.80;3.50;;;22.00;61.80;;;;;;4875500;29;20195;-90
2022/06/24 08:35:10;;;;;;;4.07;3.67;;;22.00;61.90;;;;;;4890856;29;20244;-90
2022/06/24 08:37:37;;;;;;;4.00;3.60;;;22.10;61.60;;;;;;4875035;29;20179;-90
2022/06/24 08:40:04;;;;;;;3.78;3.42;;;22.10;61.60;;;;;;4890356;29;20235;-90
2022/06/24 08:42:32;;;;;;;4.22;3.83;;;22.10;61.50;;;;;;4890328;29;20699;-90
2022/06/24 08:44:59;;;;;;;3.60;3.30;;;22.10;61.60;;;;;;4890068;29;20608;-90
2022/06/24 08:47:27;;;;;;;4.07;3.67;;;22.10;61.50;;;;;;4891263;29;20628;-89
2022/06/24 08:50:01;;;;;;;4.15;3.75;;;22.10;61.30;;;;;;4890321;29;20627;-90
2022/06/24 08:52:27;;;;;;;3.90;3.50;;;22.00;61.40;;;;;;4906478;29;20694;-90
2022/06/24 08:54:56;;;;;;;3.88;3.50;;;22.00;61.60;;;;;;4890662;29;20178;-89
2022/06/24 08:57:23;;;;;;;3.90;3.60;;;22.00;61.50;;;;;;4930505;29;20267;-90
2022/06/24 08:59:58;;;;;;;3.72;3.42;;;22.00;61.60;;;;;;4931550;29;20165;-90
2022/06/24 09:02:26;;;;;;;3.85;3.53;;;22.00;61.70;;;;;;4930611;29;20181;-90
2022/06/24 09:04:58;;;;;;;3.90;3.50;;;22.00;61.80;;;;;;4931152;29;20229;-90
2022/06/24 09:07:27;;;;;;;3.63;3.33;;;22.00;61.80;;;;;;4931453;29;20181;-89
2022/06/24 09:09:59;;;;;;;3.70;3.40;;;22.10;61.80;;;;;;4912489;29;20166;-90
2022/06/24 09:12:30;;;;;;;4.05;3.65;;;22.00;61.80;;;;;;4912787;29;20206;-89
2022/06/24 09:15:04;;;;;;;3.60;3.30;;;21.90;61.80;;;;;;4913201;29;20613;-90
2022/06/24 09:17:32;;;;;;;3.70;3.40;;;21.90;61.90;;;;;;4928402;29;20166;-90
2022/06/24 09:20:08;;;;;;;3.80;3.50;;;22.00;61.90;;;;;;4912433;29;20544;-90
2022/06/24 09:22:41;;;;;;;3.55;3.25;;;21.90;61.90;;;;;;4913497;29;20183;-90
2022/06/24 09:25:11;;;;;;;3.72;3.42;;;22.00;62.00;;;;;;4928650;29;20198;-90
2022/06/24 09:27:45;;;;;;;3.75;3.28;;;22.00;61.80;;;;;;4913684;29;20170;-90
2022/06/24 09:30:12;;;;;;;3.30;3.00;;;22.00;61.90;;;;;;4912213;29;20178;-90
2022/06/24 09:32:51;;;;;;;3.88;3.50;;;22.00;61.80;;;;;;4912996;29;20757;-90
2022/06/24 09:35:19;;;;;;;3.60;3.30;;;22.00;61.80;;;;;;4931483;29;20252;-90
2022/06/24 09:37:46;;;;;;;3.50;3.20;;;22.00;61.80;;;;;;4916835;29;20178;-90
2022/06/24 09:40:27;;;;;;;3.33;3.03;;;22.00;61.90;;;;;;4916764;29;20185;-90
2022/06/24 09:43:01;;;;;;;3.85;3.53;;;22.00;61.90;;;;;;4916824;29;20186;-90
2022/06/24 09:45:49;;;;;;;3.80;3.50;;;22.00;62.00;;;;;;4915740;29;20229;-90
2022/06/24 09:48:33;;;;;;;3.65;3.35;;;22.00;61.80;;;;;;4930812;29;20178;-90
2022/06/24 09:51:04;;;;;;;3.90;3.50;;;22.00;61.70;;;;;;4931004;29;20241;-90
2022/06/24 09:53:35;;;;;;;3.67;3.38;;;22.00;61.80;;;;;;4931242;29;20193;-90
2022/06/24 09:56:01;;;;;;;3.38;3.08;;;22.00;61.80;;;;;;4915327;29;20333;-90
2022/06/24 09:58:38;;;;;;;3.90;3.50;;;22.10;61.80;;;;;;4915622;29;20177;-90
2022/06/24 10:01:05;;;;;;;3.60;3.30;;;22.00;61.80;;;;;;4929894;29;20626;-90
2022/06/24 10:03:34;;;;;;;3.72;3.42;;;22.10;61.80;;;;;;4915502;29;20201;-91
2022/06/24 10:06:09;;;;;;;3.72;3.42;;;22.00;61.80;;;;;;4931108;29;20176;-90
2022/06/24 10:08:43;;;;;;;3.67;3.38;;;22.00;62.70;;;;;;4930688;29;20173;-90
2022/06/24 10:11:10;;;;;;;4.10;3.70;;;21.90;61.90;;;;;;4914895;29;20571;-90
2022/06/24 10:13:37;;;;;;;3.80;3.50;;;22.00;61.80;;;;;;4914466;29;20546;-90
2022/06/24 10:16:05;;;;;;;3.60;3.30;;;22.00;61.70;;;;;;4914598;29;20169;-90
2022/06/24 10:18:37;;;;;;;3.47;3.17;;;22.00;61.80;;;;;;4914682;29;20171;-89
2022/06/24 10:21:05;;;;;;;3.97;3.58;;;22.00;61.70;;;;;;4928730;29;20166;-90
2022/06/24 10:23:41;;;;;;;3.33;3.00;;;22.00;61.90;;;;;;4913928;29;20307;-90
2022/06/24 10:26:25;;;;;;;3.38;3.08;;;22.00;61.90;;;;;;4913098;29;20658;-90
2022/06/24 10:29:21;;;;;;;3.83;3.53;;;22.00;61.90;;;;;;4928739;29;20177;-90
2022/06/24 10:31:53;;;;;;;3.50;3.20;;;22.00;61.90;;;;;;4943987;29;20162;-89
2022/06/24 10:34:29;;;;;;;3.70;3.35;;;22.00;61.90;;;;;;4928676;29;20170;-90
2022/06/24 10:37:13;;;;;;;3.75;3.40;;;22.00;61.90;;;;;;4928905;29;20166;-90
2022/06/24 10:39:46;;;;;;;3.60;3.30;;;21.90;61.90;;;;;;4930499;29;20173;-89
2022/06/24 10:42:14;;;;;;;3.80;3.50;;;22.00;61.60;;;;;;4912421;29;20176;-89
2022/06/24 10:44:55;;;;;;;3.50;3.20;;;22.10;61.60;;;;;;4911219;29;20657;-89
2022/06/24 10:47:27;;;;;;;3.70;3.40;;;22.00;61.80;;;;;;4945488;29;20188;-90
2022/06/24 10:50:15;;;;;;;3.50;3.20;;;22.00;61.60;;;;;;4929822;29;20205;-90
2022/06/24 10:53:01;;;;;;;3.33;3.00;;;22.00;61.80;;;;;;4929130;29;20253;-89
2022/06/24 10:55:43;;;;;;;3.30;3.00;;;22.00;61.80;;;;;;4929216;29;20204;-90
2022/06/24 10:58:13;;;;;;;3.45;3.15;;;22.00;61.80;;;;;;4944570;29;20162;-89
2022/06/24 11:00:51;;;;;;;3.97;3.60;;;22.00;61.80;;;;;;4913880;29;20166;-89
2022/06/24 11:03:26;;;;;;;4.20;3.80;;;22.00;61.70;;;;;;4929519;29;20166;-90
2022/06/24 11:06:00;;;;;;;3.30;3.00;;;22.00;61.80;;;;;;4913672;29;20264;-89
2022/06/24 11:08:38;;;;;;;3.58;3.28;;;22.00;61.60;;;;;;4929173;29;20680;-90
2022/06/24 11:11:05;;;;;;;3.30;3.00;;;22.00;61.40;;;;;;4912788;29;20170;-90
2022/06/24 11:13:45;;;;;;;3.92;3.45;;;22.10;61.50;;;;;;4912978;29;20632;-89
2022/06/24 11:16:18;;;;;;;3.38;3.08;;;22.00;61.50;;;;;;4928596;29;20244;-89
2022/06/24 11:18:49;;;;;;;3.92;3.53;;;22.00;61.60;;;;;;4944356;29;20617;-90
2022/06/24 11:21:18;;;;;;;3.20;2.90;;;22.00;61.80;;;;;;4912289;29;20195;-89
2022/06/24 11:23:47;;;;;;;3.53;3.22;;;22.00;61.50;;;;;;4928246;29;20317;-89
2022/06/24 11:26:16;;;;;;;3.78;3.38;;;22.00;61.60;;;;;;4927761;29;20158;-90
2022/06/24 11:28:52;;;;;;;3.88;3.50;;;22.00;61.40;;;;;;4912747;29;20202;-90
2022/06/24 11:31:25;;;;;;;3.58;3.28;;;22.00;61.40;;;;;;4928339;29;20169;-90
2022/06/24 11:34:10;;;;;;;3.55;3.25;;;22.00;61.40;;;;;;4927532;29;20198;-90
2022/06/24 11:36:41;;;;;;;3.60;3.30;;;22.00;61.40;;;;;;4943700;29;20194;-89
2022/06/24 11:39:14;;;;;;;3.80;3.50;;;22.00;61.30;;;;;;4928568;29;20166;-90
2022/06/24 11:41:46;;;;;;;3.45;3.15;;;22.00;61.40;;;;;;4928947;29;20241;-90
2022/06/24 11:44:13;;;;;;;3.78;3.40;;;22.10;61.50;;;;;;4912687;29;20178;-89
2022/06/24 11:46:50;;;;;;;3.90;3.50;;;22.00;61.20;;;;;;4911932;29;20253;-89
2022/06/24 11:49:23;;;;;;;3.80;3.50;;;22.10;61.10;;;;;;4910700;29;20185;-91
2022/06/24 11:51:51;;;;;;;3.50;3.20;;;22.10;61.30;;;;;;4891761;29;20284;-90
2022/06/24 11:54:27;;;;;;;3.40;3.10;;;22.00;61.60;;;;;;4892076;29;20178;-90
2022/06/24 11:56:53;;;;;;;3.42;3.13;;;22.00;61.60;;;;;;4891517;29;20182;-89
2022/06/24 11:59:20;;;;;;;3.50;3.20;;;22.00;61.60;;;;;;4891868;29;20641;-90
2022/06/24 12:01:46;;;;;;;4.03;3.63;;;22.00;61.40;;;;;;4892264;29;20183;-90
2022/06/24 12:04:23;;;;;;;3.70;3.40;;;22.00;61.40;;;;;;4891802;29;20309;-90
2022/06/24 12:06:50;;;;;;;3.53;3.22;;;22.00;61.40;;;;;;4892490;29;20191;-89
2022/06/24 12:09:17;;;;;;;3.30;3.00;;;22.10;61.20;;;;;;4892071;29;20171;-90
2022/06/24 12:11:43;;;;;;;4.00;3.60;;;22.10;61.00;;;;;;4892048;29;20187;-90
2022/06/24 12:14:11;;;;;;;3.55;3.25;;;22.10;61.20;;;;;;4891875;29;20347;-90
2022/06/24 12:16:57;;;;;;;3.20;2.90;;;22.10;61.10;;;;;;4891195;29;20274;-90
2022/06/24 12:19:28;;;;;;;3.80;3.50;;;22.10;61.50;;;;;;4891282;29;20170;-89
2022/06/24 12:22:09;;;;;;;3.55;3.25;;;22.20;60.90;;;;;;4894157;29;20323;-89
2022/06/24 12:24:35;;;;;;;3.38;3.08;;;22.10;60.90;;;;;;4926690;29;20162;-90
2022/06/24 12:27:03;;;;;;;3.47;3.17;;;22.10;61.10;;;;;;4926572;29;20158;-90
2022/06/24 12:29:32;;;;;;;3.50;3.20;;;22.10;61.00;;;;;;4911896;29;20171;-90
2022/06/24 12:32:02;;;;;;;3.50;3.20;;;22.10;61.00;;;;;;4910833;29;20186;-89
2022/06/24 12:34:29;;;;;;;3.60;3.30;;;22.10;61.20;;;;;;4910422;29;20158;-90
2022/06/24 12:37:03;;;;;;;3.80;3.40;;;22.00;61.00;;;;;;4911379;29;20220;-90
2022/06/24 12:39:34;;;;;;;3.42;3.13;;;22.10;61.00;;;;;;4926559;29;20178;-90
2022/06/24 12:42:04;;;;;;;3.63;3.33;;;22.10;61.10;;;;;;4910984;29;20175;-90
2022/06/24 12:44:50;;;;;;;3.42;3.10;;;22.10;61.10;;;;;;4910267;29;20529;-90
2022/06/24 12:52:58;;;;;;;3.60;3.30;;;22.20;60.80;;;;;;4928631;29;20200;-89
2022/06/24 12:55:24;;;;;;;3.47;3.17;;;22.20;60.80;;;;;;4910995;29;20190;-90
2022/06/24 12:57:50;;;;;;;3.30;3.00;;;22.20;60.80;;;;;;4925938;29;20165;-90
2022/06/24 13:00:22;;;;;;;3.28;2.97;;;22.20;60.80;;;;;;4911602;29;20195;-90
2022/06/24 13:02:50;;;;;;;3.40;3.10;;;22.20;60.70;;;;;;4925709;29;20296;-90
2022/06/24 13:05:19;;;;;;;3.05;2.78;;;22.20;60.70;;;;;;4911021;29;20177;-90
2022/06/24 13:07:45;;;;;;;3.40;3.10;;;22.20;60.60;;;;;;4910691;29;20242;-90
2022/06/24 13:10:11;;;;;;;3.35;3.05;;;22.20;60.70;;;;;;4910385;29;20178;-90
2022/06/24 13:12:39;;;;;;;3.97;3.58;;;22.20;60.80;;;;;;4911373;29;20221;-90
2022/06/24 13:15:10;;;;;;;3.30;3.00;;;22.20;60.80;;;;;;4909655;29;20173;-90
2022/06/24 13:17:40;;;;;;;3.60;3.30;;;22.20;60.90;;;;;;4943396;29;20169;-90